sensor_id;sensor_type;location;lat;lon;timestamp;temperature;humidity
19365;DHT22;9818;48.382;10.850;2023-04-25T00:00:06;14.50;99.90
19365;DHT22;9818;48.382;10.850;2023-04-25T00:02:36;14.50;99.90
19365;DHT22;9818;48.382;10.850;2023-04-25T00:05:08;14.50;99.90
19365;DHT22;9818;48.382;10.850;2023-04-25T00:07:36;14.50;99.90
19365;DHT22;9818;48.382;10.850;2023-04-25T00:10:08;14.50;99.90
19365;DHT22;9818;48.382;10.850;2023-04-25T00:12:37;14.50;99.90
19365;DHT22;9818;48.382;10.850;2023-04-25T00:15:07;14.50;99.90
19365;DHT22;9818;48.382;10.850;2023-04-25T00:17:36;14.40;99.90
19365;DHT22;9818;48.382;10.850;2023-04-25T00:20:09;14.40;99.90
19365;DHT22;9818;48.382;10.850;2023-04-25T00:22:38;14.50;99.90
19365;DHT22;9818;48.382;10.850;2023-04-25T00:25:07;14.40;99.90
19365;DHT22;9818;48.382;10.850;2023-04-25T00:27:36;14.40;99.90
19365;DHT22;9818;48.382;10.850;2023-04-25T00:30:06;14.40;99.90
19365;DHT22;9818;48.382;10.850;2023-04-25T00:32:35;14.40;99.90
19365;DHT22;9818;48.382;10.850;2023-04-25T00:35:04;14.40;99.90
19365;DHT22;9818;48.382;10.850;2023-04-25T00:37:35;14.40;99.90
19365;DHT22;9818;48.382;10.850;2023-04-25T00:40:06;14.40;99.90
19365;DHT22;9818;48.382;10.850;2023-04-25T00:42:35;14.40;99.90
19365;DHT22;9818;48.382;10.850;2023-04-25T00:45:06;14.40;99.90
19365;DHT22;9818;48.382;10.850;2023-04-25T00:47:36;14.40;99.90
19365;DHT22;9818;48.382;10.850;2023-04-25T00:50:06;14.40;99.90
19365;DHT22;9818;48.382;10.850;2023-04-25T00:52:38;14.40;99.90
19365;DHT22;9818;48.382;10.850;2023-04-25T00:55:09;14.40;99.90
19365;DHT22;9818;48.382;10.850;2023-04-25T00:57:38;14.40;99.90
19365;DHT22;9818;48.382;10.850;2023-04-25T01:00:09;14.40;99.90
19365;DHT22;9818;48.382;10.850;2023-04-25T01:02:40;14.40;99.90
19365;DHT22;9818;48.382;10.850;2023-04-25T01:05:09;14.40;99.90
19365;DHT22;9818;48.382;10.850;2023-04-25T01:07:40;14.40;99.90
19365;DHT22;9818;48.382;10.850;2023-04-25T01:10:09;14.40;99.90
19365;DHT22;9818;48.382;10.850;2023-04-25T01:12:38;14.40;99.90
19365;DHT22;9818;48.382;10.850;2023-04-25T01:15:07;14.40;99.90
19365;DHT22;9818;48.382;10.850;2023-04-25T01:17:36;14.40;99.90
19365;DHT22;9818;48.382;10.850;2023-04-25T01:20:07;14.40;99.90
19365;DHT22;9818;48.382;10.850;2023-04-25T01:22:38;14.40;99.90
19365;DHT22;9818;48.382;10.850;2023-04-25T01:25:08;14.40;99.90
19365;DHT22;9818;48.382;10.850;2023-04-25T01:27:37;14.40;99.90
19365;DHT22;9818;48.382;10.850;2023-04-25T01:30:07;14.40;99.90
19365;DHT22;9818;48.382;10.850;2023-04-25T01:32:36;14.40;99.90
19365;DHT22;9818;48.382;10.850;2023-04-25T01:35:08;14.40;99.90
19365;DHT22;9818;48.382;10.850;2023-04-25T01:37:40;14.40;99.90
19365;DHT22;9818;48.382;10.850;2023-04-25T01:40:10;14.40;99.90
19365;DHT22;9818;48.382;10.850;2023-04-25T01:42:42;14.40;99.90
19365;DHT22;9818;48.382;10.850;2023-04-25T01:45:12;14.40;99.90
19365;DHT22;9818;48.382;10.850;2023-04-25T01:47:40;14.40;99.90
19365;DHT22;9818;48.382;10.850;2023-04-25T01:50:12;14.40;99.90
19365;DHT22;9818;48.382;10.850;2023-04-25T01:52:44;14.40;99.90
19365;DHT22;9818;48.382;10.850;2023-04-25T01:55:12;14.40;99.90
19365;DHT22;9818;48.382;10.850;2023-04-25T01:57:41;14.40;99.90
19365;DHT22;9818;48.382;10.850;2023-04-25T02:00:11;14.40;99.90
19365;DHT22;9818;48.382;10.850;2023-04-25T02:02:40;14.40;99.90
19365;DHT22;9818;48.382;10.850;2023-04-25T02:05:09;14.40;99.90
19365;DHT22;9818;48.382;10.850;2023-04-25T02:07:38;14.40;99.90
19365;DHT22;9818;48.382;10.850;2023-04-25T02:10:09;14.40;99.90
19365;DHT22;9818;48.382;10.850;2023-04-25T02:12:38;14.40;99.90
19365;DHT22;9818;48.382;10.850;2023-04-25T02:15:07;14.40;99.90
19365;DHT22;9818;48.382;10.850;2023-04-25T02:17:36;14.40;99.90
19365;DHT22;9818;48.382;10.850;2023-04-25T02:20:06;14.40;99.90
19365;DHT22;9818;48.382;10.850;2023-04-25T02:22:35;14.40;99.90
19365;DHT22;9818;48.382;10.850;2023-04-25T02:25:05;14.40;99.90
19365;DHT22;9818;48.382;10.850;2023-04-25T02:27:37;14.40;99.90
19365;DHT22;9818;48.382;10.850;2023-04-25T02:30:07;14.40;99.90
19365;DHT22;9818;48.382;10.850;2023-04-25T02:32:35;14.40;99.90
19365;DHT22;9818;48.382;10.850;2023-04-25T02:35:05;14.40;99.90
19365;DHT22;9818;48.382;10.850;2023-04-25T02:37:35;14.40;99.90
19365;DHT22;9818;48.382;10.850;2023-04-25T02:40:07;14.40;99.90
19365;DHT22;9818;48.382;10.850;2023-04-25T02:42:39;14.40;99.90
19365;DHT22;9818;48.382;10.850;2023-04-25T02:45:09;14.40;99.90
19365;DHT22;9818;48.382;10.850;2023-04-25T02:47:37;14.40;99.90
19365;DHT22;9818;48.382;10.850;2023-04-25T02:50:07;14.40;99.90
19365;DHT22;9818;48.382;10.850;2023-04-25T02:52:36;14.40;99.90
19365;DHT22;9818;48.382;10.850;2023-04-25T02:55:05;14.40;99.90
19365;DHT22;9818;48.382;10.850;2023-04-25T02:57:34;14.40;99.90
19365;DHT22;9818;48.382;10.850;2023-04-25T03:00:06;14.40;99.90
19365;DHT22;9818;48.382;10.850;2023-04-25T03:02:37;14.40;99.90
19365;DHT22;9818;48.382;10.850;2023-04-25T03:05:06;14.40;99.90
19365;DHT22;9818;48.382;10.850;2023-04-25T03:07:35;14.40;99.90
19365;DHT22;9818;48.382;10.850;2023-04-25T03:10:06;14.40;99.90
19365;DHT22;9818;48.382;10.850;2023-04-25T03:12:35;14.40;99.90
19365;DHT22;9818;48.382;10.850;2023-04-25T03:15:07;14.40;99.90
19365;DHT22;9818;48.382;10.850;2023-04-25T03:17:35;14.40;99.90
19365;DHT22;9818;48.382;10.850;2023-04-25T03:20:06;14.40;99.90
19365;DHT22;9818;48.382;10.850;2023-04-25T03:22:35;14.40;99.90
19365;DHT22;9818;48.382;10.850;2023-04-25T03:25:04;14.40;99.90
19365;DHT22;9818;48.382;10.850;2023-04-25T03:27:34;14.40;99.90
19365;DHT22;9818;48.382;10.850;2023-04-25T03:30:03;14.40;99.90
19365;DHT22;9818;48.382;10.850;2023-04-25T03:32:35;14.40;99.90
19365;DHT22;9818;48.382;10.850;2023-04-25T03:35:04;14.40;99.90
19365;DHT22;9818;48.382;10.850;2023-04-25T03:37:33;14.40;99.90
19365;DHT22;9818;48.382;10.850;2023-04-25T03:40:02;14.40;99.90
19365;DHT22;9818;48.382;10.850;2023-04-25T03:42:31;14.40;99.90
19365;DHT22;9818;48.382;10.850;2023-04-25T03:45:00;14.40;99.90
19365;DHT22;9818;48.382;10.850;2023-04-25T03:47:28;14.40;99.90
19365;DHT22;9818;48.382;10.850;2023-04-25T03:50:00;14.40;99.90
19365;DHT22;9818;48.382;10.850;2023-04-25T03:52:29;14.40;99.90
19365;DHT22;9818;48.382;10.850;2023-04-25T03:54:57;14.40;99.90
19365;DHT22;9818;48.382;10.850;2023-04-25T03:57:26;14.40;99.90
19365;DHT22;9818;48.382;10.850;2023-04-25T03:59:54;14.40;99.90
19365;DHT22;9818;48.382;10.850;2023-04-25T04:02:23;14.40;99.90
19365;DHT22;9818;48.382;10.850;2023-04-25T04:04:52;14.40;99.90
19365;DHT22;9818;48.382;10.850;2023-04-25T04:07:24;14.40;99.90
19365;DHT22;9818;48.382;10.850;2023-04-25T04:09:52;14.40;99.90
19365;DHT22;9818;48.382;10.850;2023-04-25T04:12:21;14.40;99.90
19365;DHT22;9818;48.382;10.850;2023-04-25T04:14:50;14.40;99.90
19365;DHT22;9818;48.382;10.850;2023-04-25T04:17:18;14.40;99.90
19365;DHT22;9818;48.382;10.850;2023-04-25T04:19:47;14.40;99.90
19365;DHT22;9818;48.382;10.850;2023-04-25T04:22:15;14.40;99.90
19365;DHT22;9818;48.382;10.850;2023-04-25T04:24:47;14.40;99.90
19365;DHT22;9818;48.382;10.850;2023-04-25T04:27:15;14.40;99.90
19365;DHT22;9818;48.382;10.850;2023-04-25T04:29:45;14.40;99.90
19365;DHT22;9818;48.382;10.850;2023-04-25T04:32:14;14.40;99.90
19365;DHT22;9818;48.382;10.850;2023-04-25T04:34:43;14.40;99.90
19365;DHT22;9818;48.382;10.850;2023-04-25T04:37:13;14.40;99.90
19365;DHT22;9818;48.382;10.850;2023-04-25T04:39:41;14.40;99.90
19365;DHT22;9818;48.382;10.850;2023-04-25T04:42:13;14.40;99.90
19365;DHT22;9818;48.382;10.850;2023-04-25T04:44:42;14.40;99.90
19365;DHT22;9818;48.382;10.850;2023-04-25T04:47:11;14.40;99.90
19365;DHT22;9818;48.382;10.850;2023-04-25T04:49:40;14.40;99.90
19365;DHT22;9818;48.382;10.850;2023-04-25T04:52:08;14.40;99.90
19365;DHT22;9818;48.382;10.850;2023-04-25T04:54:37;14.40;99.90
19365;DHT22;9818;48.382;10.850;2023-04-25T04:57:05;14.40;99.90
19365;DHT22;9818;48.382;10.850;2023-04-25T04:59:37;14.40;99.90
19365;DHT22;9818;48.382;10.850;2023-04-25T05:02:05;14.40;99.90
19365;DHT22;9818;48.382;10.850;2023-04-25T05:04:34;14.40;99.90
19365;DHT22;9818;48.382;10.850;2023-04-25T05:07:02;14.40;99.90
19365;DHT22;9818;48.382;10.850;2023-04-25T05:09:31;14.40;99.90
19365;DHT22;9818;48.382;10.850;2023-04-25T05:12:00;14.40;99.90
19365;DHT22;9818;48.382;10.850;2023-04-25T05:14:29;14.40;99.90
19365;DHT22;9818;48.382;10.850;2023-04-25T05:17:00;14.40;99.90
19365;DHT22;9818;48.382;10.850;2023-04-25T05:19:30;14.40;99.90
19365;DHT22;9818;48.382;10.850;2023-04-25T05:21:58;14.40;99.90
19365;DHT22;9818;48.382;10.850;2023-04-25T05:24:27;14.40;99.90
19365;DHT22;9818;48.382;10.850;2023-04-25T05:26:56;14.40;99.90
19365;DHT22;9818;48.382;10.850;2023-04-25T05:29:24;14.40;99.90
19365;DHT22;9818;48.382;10.850;2023-04-25T05:31:53;14.40;99.90
19365;DHT22;9818;48.382;10.850;2023-04-25T05:34:24;14.40;99.90
19365;DHT22;9818;48.382;10.850;2023-04-25T05:36:53;14.40;99.90
19365;DHT22;9818;48.382;10.850;2023-04-25T05:39:21;14.40;99.90
19365;DHT22;9818;48.382;10.850;2023-04-25T05:41:50;14.40;99.90
19365;DHT22;9818;48.382;10.850;2023-04-25T05:44:19;14.40;99.90
19365;DHT22;9818;48.382;10.850;2023-04-25T05:46:47;14.40;99.90
19365;DHT22;9818;48.382;10.850;2023-04-25T05:49:16;14.40;99.90
19365;DHT22;9818;48.382;10.850;2023-04-25T05:51:47;14.40;99.90
19365;DHT22;9818;48.382;10.850;2023-04-25T05:54:16;14.30;99.90
19365;DHT22;9818;48.382;10.850;2023-04-25T05:56:47;14.40;99.90
19365;DHT22;9818;48.382;10.850;2023-04-25T05:59:16;14.40;99.90
19365;DHT22;9818;48.382;10.850;2023-04-25T06:01:44;14.40;99.90
19365;DHT22;9818;48.382;10.850;2023-04-25T06:04:13;14.40;99.90
19365;DHT22;9818;48.382;10.850;2023-04-25T06:06:42;14.40;99.90
19365;DHT22;9818;48.382;10.850;2023-04-25T06:09:13;14.40;99.90
19365;DHT22;9818;48.382;10.850;2023-04-25T06:11:42;14.40;99.90
19365;DHT22;9818;48.382;10.850;2023-04-25T06:14:10;14.40;99.90
19365;DHT22;9818;48.382;10.850;2023-04-25T06:16:39;14.40;99.90
19365;DHT22;9818;48.382;10.850;2023-04-25T06:19:08;14.40;99.90
19365;DHT22;9818;48.382;10.850;2023-04-25T06:21:36;14.40;99.90
19365;DHT22;9818;48.382;10.850;2023-04-25T06:24:05;14.40;99.90
19365;DHT22;9818;48.382;10.850;2023-04-25T06:26:36;14.40;99.90
19365;DHT22;9818;48.382;10.850;2023-04-25T06:29:05;14.40;99.90
19365;DHT22;9818;48.382;10.850;2023-04-25T06:31:34;14.40;99.90
19365;DHT22;9818;48.382;10.850;2023-04-25T06:34:03;14.40;99.90
19365;DHT22;9818;48.382;10.850;2023-04-25T06:36:32;14.40;99.90
19365;DHT22;9818;48.382;10.850;2023-04-25T06:39:00;14.40;99.90
19365;DHT22;9818;48.382;10.850;2023-04-25T06:41:29;14.40;99.90
19365;DHT22;9818;48.382;10.850;2023-04-25T06:44:00;14.40;99.90
19365;DHT22;9818;48.382;10.850;2023-04-25T06:46:29;14.40;99.90
19365;DHT22;9818;48.382;10.850;2023-04-25T06:48:58;14.40;99.90
19365;DHT22;9818;48.382;10.850;2023-04-25T06:51:26;14.40;99.90
19365;DHT22;9818;48.382;10.850;2023-04-25T06:53:56;14.40;99.90
19365;DHT22;9818;48.382;10.850;2023-04-25T06:56:25;14.40;99.90
19365;DHT22;9818;48.382;10.850;2023-04-25T06:58:55;14.40;99.90
19365;DHT22;9818;48.382;10.850;2023-04-25T07:01:26;14.40;99.90
19365;DHT22;9818;48.382;10.850;2023-04-25T07:04:04;14.40;99.90
19365;DHT22;9818;48.382;10.850;2023-04-25T07:06:33;14.40;99.90
19365;DHT22;9818;48.382;10.850;2023-04-25T07:09:03;14.40;99.90
19365;DHT22;9818;48.382;10.850;2023-04-25T07:11:33;14.40;99.90
19365;DHT22;9818;48.382;10.850;2023-04-25T07:14:01;14.40;99.90
19365;DHT22;9818;48.382;10.850;2023-04-25T07:16:33;14.40;99.90
19365;DHT22;9818;48.382;10.850;2023-04-25T07:19:01;14.40;99.90
19365;DHT22;9818;48.382;10.850;2023-04-25T07:21:30;14.40;99.90
19365;DHT22;9818;48.382;10.850;2023-04-25T07:23:59;14.40;99.90
19365;DHT22;9818;48.382;10.850;2023-04-25T07:26:28;14.40;99.90
19365;DHT22;9818;48.382;10.850;2023-04-25T07:28:57;14.40;99.90
19365;DHT22;9818;48.382;10.850;2023-04-25T07:31:26;14.40;99.90
19365;DHT22;9818;48.382;10.850;2023-04-25T07:33:57;14.40;99.90
19365;DHT22;9818;48.382;10.850;2023-04-25T07:36:26;14.40;99.90
19365;DHT22;9818;48.382;10.850;2023-04-25T07:38:56;14.40;99.90
19365;DHT22;9818;48.382;10.850;2023-04-25T07:41:25;14.40;99.90
19365;DHT22;9818;48.382;10.850;2023-04-25T07:43:53;14.40;99.90
19365;DHT22;9818;48.382;10.850;2023-04-25T07:46:22;14.40;99.90
19365;DHT22;9818;48.382;10.850;2023-04-25T07:48:51;14.40;99.90
19365;DHT22;9818;48.382;10.850;2023-04-25T07:51:22;14.40;99.90
19365;DHT22;9818;48.382;10.850;2023-04-25T07:53:51;14.40;99.90
19365;DHT22;9818;48.382;10.850;2023-04-25T07:56:20;14.40;99.90
19365;DHT22;9818;48.382;10.850;2023-04-25T07:58:48;14.40;99.90
19365;DHT22;9818;48.382;10.850;2023-04-25T08:01:17;14.40;99.90
19365;DHT22;9818;48.382;10.850;2023-04-25T08:03:48;14.40;99.90
19365;DHT22;9818;48.382;10.850;2023-04-25T08:06:16;14.40;99.90
19365;DHT22;9818;48.382;10.850;2023-04-25T08:08:48;14.40;99.90
19365;DHT22;9818;48.382;10.850;2023-04-25T08:11:17;14.40;99.90
19365;DHT22;9818;48.382;10.850;2023-04-25T08:13:46;14.40;99.90
19365;DHT22;9818;48.382;10.850;2023-04-25T08:16:15;14.40;99.90
19365;DHT22;9818;48.382;10.850;2023-04-25T08:18:44;14.40;99.90
19365;DHT22;9818;48.382;10.850;2023-04-25T08:21:13;14.40;99.90
19365;DHT22;9818;48.382;10.850;2023-04-25T08:23:41;14.40;99.90
19365;DHT22;9818;48.382;10.850;2023-04-25T08:26:13;14.40;99.90
19365;DHT22;9818;48.382;10.850;2023-04-25T08:28:41;14.40;99.90
19365;DHT22;9818;48.382;10.850;2023-04-25T08:31:10;14.40;99.90
19365;DHT22;9818;48.382;10.850;2023-04-25T08:33:39;14.40;99.90
19365;DHT22;9818;48.382;10.850;2023-04-25T08:36:08;14.40;99.90
19365;DHT22;9818;48.382;10.850;2023-04-25T08:38:36;14.40;99.90
19365;DHT22;9818;48.382;10.850;2023-04-25T08:41:06;14.40;99.90
19365;DHT22;9818;48.382;10.850;2023-04-25T08:43:37;14.40;99.90
19365;DHT22;9818;48.382;10.850;2023-04-25T08:46:11;14.40;99.90
19365;DHT22;9818;48.382;10.850;2023-04-25T08:48:43;14.40;99.90
19365;DHT22;9818;48.382;10.850;2023-04-25T08:51:17;14.50;99.90
19365;DHT22;9818;48.382;10.850;2023-04-25T08:53:48;14.40;99.90
19365;DHT22;9818;48.382;10.850;2023-04-25T08:56:17;14.50;99.90
19365;DHT22;9818;48.382;10.850;2023-04-25T08:58:51;14.50;99.90
19365;DHT22;9818;48.382;10.850;2023-04-25T09:01:21;14.50;99.90
19365;DHT22;9818;48.382;10.850;2023-04-25T09:03:50;14.60;99.90
19365;DHT22;9818;48.382;10.850;2023-04-25T09:06:19;14.60;99.90
19365;DHT22;9818;48.382;10.850;2023-04-25T09:08:50;14.50;99.90
19365;DHT22;9818;48.382;10.850;2023-04-25T09:11:19;14.50;99.90
19365;DHT22;9818;48.382;10.850;2023-04-25T09:13:48;14.50;99.90
19365;DHT22;9818;48.382;10.850;2023-04-25T09:16:19;14.50;99.90
19365;DHT22;9818;48.382;10.850;2023-04-25T09:18:48;14.50;99.90
19365;DHT22;9818;48.382;10.850;2023-04-25T09:21:16;14.40;99.90
19365;DHT22;9818;48.382;10.850;2023-04-25T09:23:47;14.40;99.90
19365;DHT22;9818;48.382;10.850;2023-04-25T09:26:18;14.40;99.90
19365;DHT22;9818;48.382;10.850;2023-04-25T09:28:47;14.40;99.90
19365;DHT22;9818;48.382;10.850;2023-04-25T09:31:24;14.40;99.90
19365;DHT22;9818;48.382;10.850;2023-04-25T09:33:59;14.40;99.90
19365;DHT22;9818;48.382;10.850;2023-04-25T09:36:30;14.40;99.90
19365;DHT22;9818;48.382;10.850;2023-04-25T09:38:59;14.40;99.90
19365;DHT22;9818;48.382;10.850;2023-04-25T09:41:29;14.40;99.90
19365;DHT22;9818;48.382;10.850;2023-04-25T09:43:58;14.40;99.90
19365;DHT22;9818;48.382;10.850;2023-04-25T09:46:33;14.40;99.90
19365;DHT22;9818;48.382;10.850;2023-04-25T09:49:06;14.40;99.90
19365;DHT22;9818;48.382;10.850;2023-04-25T09:51:35;14.40;99.90
19365;DHT22;9818;48.382;10.850;2023-04-25T09:54:04;14.40;99.90
19365;DHT22;9818;48.382;10.850;2023-04-25T09:56:36;14.40;99.90
19365;DHT22;9818;48.382;10.850;2023-04-25T09:59:05;14.40;99.90
19365;DHT22;9818;48.382;10.850;2023-04-25T10:01:40;14.40;99.90
19365;DHT22;9818;48.382;10.850;2023-04-25T10:04:10;14.40;99.90
19365;DHT22;9818;48.382;10.850;2023-04-25T10:06:40;14.40;99.90
19365;DHT22;9818;48.382;10.850;2023-04-25T10:09:11;14.40;99.90
19365;DHT22;9818;48.382;10.850;2023-04-25T10:11:40;14.40;99.90
19365;DHT22;9818;48.382;10.850;2023-04-25T10:14:09;14.40;99.90
19365;DHT22;9818;48.382;10.850;2023-04-25T10:16:41;14.40;99.90
19365;DHT22;9818;48.382;10.850;2023-04-25T10:19:10;14.40;99.90
19365;DHT22;9818;48.382;10.850;2023-04-25T10:21:46;14.50;99.90
19365;DHT22;9818;48.382;10.850;2023-04-25T10:24:16;14.60;99.90
19365;DHT22;9818;48.382;10.850;2023-04-25T10:26:45;14.60;99.90
19365;DHT22;9818;48.382;10.850;2023-04-25T10:29:22;14.60;99.90
19365;DHT22;9818;48.382;10.850;2023-04-25T10:31:54;14.50;99.90
19365;DHT22;9818;48.382;10.850;2023-04-25T10:34:38;14.50;99.90
19365;DHT22;9818;48.382;10.850;2023-04-25T10:37:11;14.50;99.90
19365;DHT22;9818;48.382;10.850;2023-04-25T10:39:41;14.50;99.90
19365;DHT22;9818;48.382;10.850;2023-04-25T10:42:09;14.40;99.90
19365;DHT22;9818;48.382;10.850;2023-04-25T10:44:38;14.40;99.90
19365;DHT22;9818;48.382;10.850;2023-04-25T10:47:10;14.40;99.90
19365;DHT22;9818;48.382;10.850;2023-04-25T10:49:42;14.40;99.90
19365;DHT22;9818;48.382;10.850;2023-04-25T10:52:12;14.40;99.90
19365;DHT22;9818;48.382;10.850;2023-04-25T10:54:42;14.40;99.90
19365;DHT22;9818;48.382;10.850;2023-04-25T10:57:30;14.40;99.90
19365;DHT22;9818;48.382;10.850;2023-04-25T11:00:07;14.40;99.90
19365;DHT22;9818;48.382;10.850;2023-04-25T11:02:43;14.40;99.90
19365;DHT22;9818;48.382;10.850;2023-04-25T11:05:22;14.40;99.90
19365;DHT22;9818;48.382;10.850;2023-04-25T11:07:52;14.40;99.90
19365;DHT22;9818;48.382;10.850;2023-04-25T11:10:25;14.40;99.90
19365;DHT22;9818;48.382;10.850;2023-04-25T11:12:54;14.40;99.90
19365;DHT22;9818;48.382;10.850;2023-04-25T11:15:23;14.40;99.90
19365;DHT22;9818;48.382;10.850;2023-04-25T11:17:55;14.40;99.90
19365;DHT22;9818;48.382;10.850;2023-04-25T11:20:26;14.40;99.90
19365;DHT22;9818;48.382;10.850;2023-04-25T11:22:57;14.40;99.90
19365;DHT22;9818;48.382;10.850;2023-04-25T11:25:27;14.40;99.90
19365;DHT22;9818;48.382;10.850;2023-04-25T11:27:57;14.40;99.90
19365;DHT22;9818;48.382;10.850;2023-04-25T11:30:27;14.40;99.90
19365;DHT22;9818;48.382;10.850;2023-04-25T11:32:58;14.40;99.90
19365;DHT22;9818;48.382;10.850;2023-04-25T11:35:28;14.40;99.90
19365;DHT22;9818;48.382;10.850;2023-04-25T11:37:59;14.40;99.90
19365;DHT22;9818;48.382;10.850;2023-04-25T11:40:27;14.40;99.90
19365;DHT22;9818;48.382;10.850;2023-04-25T11:43:00;14.40;99.90
19365;DHT22;9818;48.382;10.850;2023-04-25T11:45:29;14.40;99.90
19365;DHT22;9818;48.382;10.850;2023-04-25T11:48:01;14.40;99.90
19365;DHT22;9818;48.382;10.850;2023-04-25T11:50:30;14.40;99.90
19365;DHT22;9818;48.382;10.850;2023-04-25T11:52:59;14.40;99.90
19365;DHT22;9818;48.382;10.850;2023-04-25T11:55:30;14.40;99.90
19365;DHT22;9818;48.382;10.850;2023-04-25T11:58:00;14.40;99.90
19365;DHT22;9818;48.382;10.850;2023-04-25T12:00:29;14.40;99.90
19365;DHT22;9818;48.382;10.850;2023-04-25T12:03:00;14.40;99.90
19365;DHT22;9818;48.382;10.850;2023-04-25T12:05:30;14.40;99.90
19365;DHT22;9818;48.382;10.850;2023-04-25T12:08:10;14.40;99.90
19365;DHT22;9818;48.382;10.850;2023-04-25T12:10:41;14.40;99.90
19365;DHT22;9818;48.382;10.850;2023-04-25T12:13:20;14.40;99.90
19365;DHT22;9818;48.382;10.850;2023-04-25T12:15:49;14.40;99.90
19365;DHT22;9818;48.382;10.850;2023-04-25T12:18:24;14.40;99.90
19365;DHT22;9818;48.382;10.850;2023-04-25T12:20:54;14.40;99.90
19365;DHT22;9818;48.382;10.850;2023-04-25T12:23:26;14.40;99.90
19365;DHT22;9818;48.382;10.850;2023-04-25T12:25:55;14.40;99.90
19365;DHT22;9818;48.382;10.850;2023-04-25T12:28:25;14.40;99.90
19365;DHT22;9818;48.382;10.850;2023-04-25T12:30:54;14.40;99.90
19365;DHT22;9818;48.382;10.850;2023-04-25T12:33:27;14.40;99.90
19365;DHT22;9818;48.382;10.850;2023-04-25T12:35:56;14.40;99.90
19365;DHT22;9818;48.382;10.850;2023-04-25T12:38:27;14.40;99.90
19365;DHT22;9818;48.382;10.850;2023-04-25T12:40:56;14.40;99.90
19365;DHT22;9818;48.382;10.850;2023-04-25T12:43:25;14.40;99.90
19365;DHT22;9818;48.382;10.850;2023-04-25T12:45:55;14.40;99.90
19365;DHT22;9818;48.382;10.850;2023-04-25T12:48:26;14.40;99.90
19365;DHT22;9818;48.382;10.850;2023-04-25T12:50:55;14.40;99.90
19365;DHT22;9818;48.382;10.850;2023-04-25T12:53:24;14.40;99.90
19365;DHT22;9818;48.382;10.850;2023-04-25T12:55:53;14.40;99.90
19365;DHT22;9818;48.382;10.850;2023-04-25T12:58:22;14.40;99.90
19365;DHT22;9818;48.382;10.850;2023-04-25T13:00:51;14.40;99.90
19365;DHT22;9818;48.382;10.850;2023-04-25T13:03:20;14.40;99.90
19365;DHT22;9818;48.382;10.850;2023-04-25T13:05:52;14.40;99.90
19365;DHT22;9818;48.382;10.850;2023-04-25T13:08:21;14.40;99.90
19365;DHT22;9818;48.382;10.850;2023-04-25T13:10:50;14.40;99.90
19365;DHT22;9818;48.382;10.850;2023-04-25T13:13:19;14.40;99.90
19365;DHT22;9818;48.382;10.850;2023-04-25T13:15:48;14.40;99.90
19365;DHT22;9818;48.382;10.850;2023-04-25T13:18:16;14.40;99.90
19365;DHT22;9818;48.382;10.850;2023-04-25T13:20:45;14.40;99.90
19365;DHT22;9818;48.382;10.850;2023-04-25T13:23:17;14.40;99.90
19365;DHT22;9818;48.382;10.850;2023-04-25T13:25:45;14.40;99.90
19365;DHT22;9818;48.382;10.850;2023-04-25T13:28:14;14.40;99.90
19365;DHT22;9818;48.382;10.850;2023-04-25T13:30:43;14.40;99.90
19365;DHT22;9818;48.382;10.850;2023-04-25T13:33:13;14.40;99.90
19365;DHT22;9818;48.382;10.850;2023-04-25T13:35:42;14.40;99.90
19365;DHT22;9818;48.382;10.850;2023-04-25T13:38:12;14.40;99.90
19365;DHT22;9818;48.382;10.850;2023-04-25T13:40:44;14.40;99.90
19365;DHT22;9818;48.382;10.850;2023-04-25T13:43:12;14.40;99.90
19365;DHT22;9818;48.382;10.850;2023-04-25T13:45:42;14.40;99.90
19365;DHT22;9818;48.382;10.850;2023-04-25T13:48:10;14.40;99.90
19365;DHT22;9818;48.382;10.850;2023-04-25T13:50:39;14.40;99.90
19365;DHT22;9818;48.382;10.850;2023-04-25T13:53:08;14.40;99.90
19365;DHT22;9818;48.382;10.850;2023-04-25T13:55:37;14.40;99.90
19365;DHT22;9818;48.382;10.850;2023-04-25T13:58:08;14.40;99.90
19365;DHT22;9818;48.382;10.850;2023-04-25T14:00:38;14.40;99.90
19365;DHT22;9818;48.382;10.850;2023-04-25T14:03:09;14.40;99.90
19365;DHT22;9818;48.382;10.850;2023-04-25T14:05:38;14.30;99.90
19365;DHT22;9818;48.382;10.850;2023-04-25T14:08:07;14.40;99.90
19365;DHT22;9818;48.382;10.850;2023-04-25T14:10:36;14.40;99.90
19365;DHT22;9818;48.382;10.850;2023-04-25T14:13:08;14.40;99.90
19365;DHT22;9818;48.382;10.850;2023-04-25T14:15:37;14.50;99.90
19365;DHT22;9818;48.382;10.850;2023-04-25T14:18:05;14.50;99.90
19365;DHT22;9818;48.382;10.850;2023-04-25T14:20:34;14.60;99.90
19365;DHT22;9818;48.382;10.850;2023-04-25T14:23:03;14.60;99.90
19365;DHT22;9818;48.382;10.850;2023-04-25T14:25:32;14.60;99.90
19365;DHT22;9818;48.382;10.850;2023-04-25T14:28:01;14.60;99.90
19365;DHT22;9818;48.382;10.850;2023-04-25T14:30:32;14.50;99.90
19365;DHT22;9818;48.382;10.850;2023-04-25T14:33:01;14.60;99.90
19365;DHT22;9818;48.382;10.850;2023-04-25T14:35:30;14.60;99.90
19365;DHT22;9818;48.382;10.850;2023-04-25T14:37:59;14.60;99.90
19365;DHT22;9818;48.382;10.850;2023-04-25T14:40:28;14.40;99.90
19365;DHT22;9818;48.382;10.850;2023-04-25T14:42:57;14.30;99.90
19365;DHT22;9818;48.382;10.850;2023-04-25T14:45:26;14.20;99.90
19365;DHT22;9818;48.382;10.850;2023-04-25T14:47:57;14.20;99.90
19365;DHT22;9818;48.382;10.850;2023-04-25T14:50:26;14.10;99.90
19365;DHT22;9818;48.382;10.850;2023-04-25T14:52:54;14.10;99.90
19365;DHT22;9818;48.382;10.850;2023-04-25T14:55:24;14.10;99.90
19365;DHT22;9818;48.382;10.850;2023-04-25T14:57:54;14.10;99.90
19365;DHT22;9818;48.382;10.850;2023-04-25T15:00:23;14.10;99.90
19365;DHT22;9818;48.382;10.850;2023-04-25T15:02:52;14.10;99.90
19365;DHT22;9818;48.382;10.850;2023-04-25T15:05:24;14.00;99.90
19365;DHT22;9818;48.382;10.850;2023-04-25T15:07:52;14.00;99.90
19365;DHT22;9818;48.382;10.850;2023-04-25T15:10:22;14.00;99.90
19365;DHT22;9818;48.382;10.850;2023-04-25T15:12:51;14.10;99.90
19365;DHT22;9818;48.382;10.850;2023-04-25T15:15:20;14.00;99.90
19365;DHT22;9818;48.382;10.850;2023-04-25T15:17:49;14.00;99.90
19365;DHT22;9818;48.382;10.850;2023-04-25T15:20:19;14.00;99.90
19365;DHT22;9818;48.382;10.850;2023-04-25T15:22:51;14.00;99.90
19365;DHT22;9818;48.382;10.850;2023-04-25T15:25:19;14.00;99.90
19365;DHT22;9818;48.382;10.850;2023-04-25T15:27:48;14.00;99.90
19365;DHT22;9818;48.382;10.850;2023-04-25T15:30:17;14.00;99.90
19365;DHT22;9818;48.382;10.850;2023-04-25T15:32:46;13.90;99.90
19365;DHT22;9818;48.382;10.850;2023-04-25T15:35:15;13.80;99.90
19365;DHT22;9818;48.382;10.850;2023-04-25T15:37:44;13.80;99.90
19365;DHT22;9818;48.382;10.850;2023-04-25T15:40:16;13.80;99.90
19365;DHT22;9818;48.382;10.850;2023-04-25T15:42:46;13.80;99.90
19365;DHT22;9818;48.382;10.850;2023-04-25T15:45:17;13.80;99.90